sensor_id;sensor_type;location;lat;lon;timestamp;P1;durP1;ratioP1;P2;durP2;ratioP2
20336;SDS011;10326;53.660;10.200;2023-01-23T00:00:21;2.22;;;1.67;;
20336;SDS011;10326;53.660;10.200;2023-01-23T00:02:48;2.58;;;1.75;;
20336;SDS011;10326;53.660;10.200;2023-01-23T00:05:15;2.03;;;1.50;;
20336;SDS011;10326;53.660;10.200;2023-01-23T00:07:42;2.78;;;1.70;;
20336;SDS011;10326;53.660;10.200;2023-01-23T00:10:10;2.03;;;1.50;;
20336;SDS011;10326;53.660;10.200;2023-01-23T00:12:39;2.92;;;1.50;;
20336;SDS011;10326;53.660;10.200;2023-01-23T00:15:09;3.17;;;1.83;;
20336;SDS011;10326;53.660;10.200;2023-01-23T00:17:37;2.83;;;1.60;;
20336;SDS011;10326;53.660;10.200;2023-01-23T00:20:05;2.55;;;1.50;;
20336;SDS011;10326;53.660;10.200;2023-01-23T00:22:34;3.33;;;1.70;;
20336;SDS011;10326;53.660;10.200;2023-01-23T00:25:01;3.05;;;1.85;;
20336;SDS011;10326;53.660;10.200;2023-01-23T00:27:29;2.13;;;1.90;;
20336;SDS011;10326;53.660;10.200;2023-01-23T00:29:56;2.80;;;1.70;;
20336;SDS011;10326;53.660;10.200;2023-01-23T00:32:25;1.65;;;1.52;;
20336;SDS011;10326;53.660;10.200;2023-01-23T00:34:53;2.97;;;1.80;;
20336;SDS011;10326;53.660;10.200;2023-01-23T00:37:20;2.15;;;1.73;;
20336;SDS011;10326;53.660;10.200;2023-01-23T00:39:48;2.38;;;1.70;;
20336;SDS011;10326;53.660;10.200;2023-01-23T00:42:15;1.90;;;1.80;;
20336;SDS011;10326;53.660;10.200;2023-01-23T00:44:44;3.05;;;2.13;;
20336;SDS011;10326;53.660;10.200;2023-01-23T00:47:11;4.28;;;1.92;;
20336;SDS011;10326;53.660;10.200;2023-01-23T00:49:39;3.90;;;2.03;;
20336;SDS011;10326;53.660;10.200;2023-01-23T00:52:08;3.00;;;2.17;;
20336;SDS011;10326;53.660;10.200;2023-01-23T00:54:35;3.38;;;1.80;;
20336;SDS011;10326;53.660;10.200;2023-01-23T00:57:03;2.38;;;2.17;;
20336;SDS011;10326;53.660;10.200;2023-01-23T00:59:31;2.58;;;2.20;;
20336;SDS011;10326;53.660;10.200;2023-01-23T01:01:58;3.50;;;1.90;;
20336;SDS011;10326;53.660;10.200;2023-01-23T01:04:25;2.60;;;1.98;;
20336;SDS011;10326;53.660;10.200;2023-01-23T01:06:54;2.97;;;2.00;;
20336;SDS011;10326;53.660;10.200;2023-01-23T01:09:21;2.72;;;1.85;;
20336;SDS011;10326;53.660;10.200;2023-01-23T01:11:49;2.95;;;2.47;;
20336;SDS011;10326;53.660;10.200;2023-01-23T01:14:16;2.13;;;1.92;;
20336;SDS011;10326;53.660;10.200;2023-01-23T01:16:45;2.95;;;2.28;;
20336;SDS011;10326;53.660;10.200;2023-01-23T01:19:13;2.33;;;1.80;;
20336;SDS011;10326;53.660;10.200;2023-01-23T01:21:43;1.70;;;1.60;;
20336;SDS011;10326;53.660;10.200;2023-01-23T01:24:11;3.25;;;2.10;;
20336;SDS011;10326;53.660;10.200;2023-01-23T01:26:39;2.42;;;1.55;;
20336;SDS011;10326;53.660;10.200;2023-01-23T01:29:06;2.80;;;1.83;;
20336;SDS011;10326;53.660;10.200;2023-01-23T01:31:33;1.70;;;1.60;;
20336;SDS011;10326;53.660;10.200;2023-01-23T01:34:01;2.13;;;1.92;;
20336;SDS011;10326;53.660;10.200;2023-01-23T01:36:28;2.22;;;1.55;;
20336;SDS011;10326;53.660;10.200;2023-01-23T01:38:55;2.38;;;1.80;;
20336;SDS011;10326;53.660;10.200;2023-01-23T01:41:24;2.13;;;1.83;;
20336;SDS011;10326;53.660;10.200;2023-01-23T01:43:51;3.10;;;2.10;;
20336;SDS011;10326;53.660;10.200;2023-01-23T01:46:22;3.10;;;2.03;;
20336;SDS011;10326;53.660;10.200;2023-01-23T01:48:55;2.45;;;1.80;;
20336;SDS011;10326;53.660;10.200;2023-01-23T01:51:30;4.82;;;2.03;;
20336;SDS011;10326;53.660;10.200;2023-01-23T01:54:05;2.38;;;2.17;;
20336;SDS011;10326;53.660;10.200;2023-01-23T01:56:42;3.67;;;2.28;;
20336;SDS011;10326;53.660;10.200;2023-01-23T01:59:14;6.43;;;2.67;;
20336;SDS011;10326;53.660;10.200;2023-01-23T02:01:43;4.18;;;2.72;;
20336;SDS011;10326;53.660;10.200;2023-01-23T02:04:13;3.13;;;2.70;;
20336;SDS011;10326;53.660;10.200;2023-01-23T02:06:41;7.22;;;3.17;;
20336;SDS011;10326;53.660;10.200;2023-01-23T02:09:09;4.38;;;3.13;;
20336;SDS011;10326;53.660;10.200;2023-01-23T02:11:47;3.38;;;2.63;;
20336;SDS011;10326;53.660;10.200;2023-01-23T02:14:17;3.10;;;2.88;;
20336;SDS011;10326;53.660;10.200;2023-01-23T02:16:48;4.00;;;2.92;;
20336;SDS011;10326;53.660;10.200;2023-01-23T02:19:26;4.60;;;2.97;;
20336;SDS011;10326;53.660;10.200;2023-01-23T02:22:07;3.20;;;2.90;;
20336;SDS011;10326;53.660;10.200;2023-01-23T02:24:51;3.88;;;3.15;;
20336;SDS011;10326;53.660;10.200;2023-01-23T02:27:30;5.40;;;3.28;;
20336;SDS011;10326;53.660;10.200;2023-01-23T02:29:57;4.00;;;3.35;;
20336;SDS011;10326;53.660;10.200;2023-01-23T02:32:28;3.75;;;3.17;;
20336;SDS011;10326;53.660;10.200;2023-01-23T02:34:56;3.78;;;3.33;;
20336;SDS011;10326;53.660;10.200;2023-01-23T02:37:26;4.95;;;3.88;;
20336;SDS011;10326;53.660;10.200;2023-01-23T02:39:58;4.22;;;3.60;;
20336;SDS011;10326;53.660;10.200;2023-01-23T02:42:27;4.07;;;3.78;;
20336;SDS011;10326;53.660;10.200;2023-01-23T02:44:58;4.22;;;3.42;;
20336;SDS011;10326;53.660;10.200;2023-01-23T02:47:26;3.40;;;3.20;;
20336;SDS011;10326;53.660;10.200;2023-01-23T02:49:55;3.78;;;3.45;;
20336;SDS011;10326;53.660;10.200;2023-01-23T02:52:22;4.28;;;3.80;;
20336;SDS011;10326;53.660;10.200;2023-01-23T02:54:50;4.30;;;3.90;;
20336;SDS011;10326;53.660;10.200;2023-01-23T02:57:17;4.35;;;3.95;;
20336;SDS011;10326;53.660;10.200;2023-01-23T02:59:45;4.40;;;4.00;;
20336;SDS011;10326;53.660;10.200;2023-01-23T03:02:33;5.63;;;4.20;;
20336;SDS011;10326;53.660;10.200;2023-01-23T03:05:01;4.40;;;4.05;;
20336;SDS011;10326;53.660;10.200;2023-01-23T03:07:28;4.03;;;3.65;;
20336;SDS011;10326;53.660;10.200;2023-01-23T03:09:55;4.10;;;3.70;;
20336;SDS011;10326;53.660;10.200;2023-01-23T03:12:22;3.90;;;3.60;;
20336;SDS011;10326;53.660;10.200;2023-01-23T03:14:51;3.55;;;3.25;;
20336;SDS011;10326;53.660;10.200;2023-01-23T03:17:20;4.72;;;3.78;;
20336;SDS011;10326;53.660;10.200;2023-01-23T03:19:48;4.22;;;3.85;;
20336;SDS011;10326;53.660;10.200;2023-01-23T03:22:16;3.25;;;3.03;;
20336;SDS011;10326;53.660;10.200;2023-01-23T03:24:43;5.45;;;3.63;;
20336;SDS011;10326;53.660;10.200;2023-01-23T03:27:10;3.83;;;3.53;;
20336;SDS011;10326;53.660;10.200;2023-01-23T03:29:42;4.32;;;3.92;;
20336;SDS011;10326;53.660;10.200;2023-01-23T03:32:29;3.72;;;3.42;;
20336;SDS011;10326;53.660;10.200;2023-01-23T03:34:57;3.70;;;3.40;;
20336;SDS011;10326;53.660;10.200;2023-01-23T03:37:24;4.50;;;3.78;;
20336;SDS011;10326;53.660;10.200;2023-01-23T03:39:53;4.07;;;3.47;;
20336;SDS011;10326;53.660;10.200;2023-01-23T03:42:46;3.85;;;3.55;;
20336;SDS011;10326;53.660;10.200;2023-01-23T03:45:21;4.50;;;4.15;;
20336;SDS011;10326;53.660;10.200;2023-01-23T03:47:50;3.80;;;3.50;;
20336;SDS011;10326;53.660;10.200;2023-01-23T03:50:18;4.47;;;4.10;;
20336;SDS011;10326;53.660;10.200;2023-01-23T03:52:45;6.15;;;3.60;;
20336;SDS011;10326;53.660;10.200;2023-01-23T03:55:13;3.85;;;3.55;;
20336;SDS011;10326;53.660;10.200;2023-01-23T03:57:41;3.55;;;3.22;;
20336;SDS011;10326;53.660;10.200;2023-01-23T04:00:21;3.67;;;3.40;;
20336;SDS011;10326;53.660;10.200;2023-01-23T04:02:58;3.85;;;3.42;;
20336;SDS011;10326;53.660;10.200;2023-01-23T04:05:26;4.00;;;3.60;;
20336;SDS011;10326;53.660;10.200;2023-01-23T04:07:53;3.90;;;3.60;;
20336;SDS011;10326;53.660;10.200;2023-01-23T04:10:22;3.72;;;3.42;;
20336;SDS011;10326;53.660;10.200;2023-01-23T04:12:53;3.65;;;3.35;;
20336;SDS011;10326;53.660;10.200;2023-01-23T04:15:21;4.10;;;3.70;;
20336;SDS011;10326;53.660;10.200;2023-01-23T04:17:50;3.53;;;3.22;;
20336;SDS011;10326;53.660;10.200;2023-01-23T04:20:19;3.63;;;3.33;;
20336;SDS011;10326;53.660;10.200;2023-01-23T04:22:47;3.72;;;3.25;;
20336;SDS011;10326;53.660;10.200;2023-01-23T04:25:14;3.88;;;3.58;;
20336;SDS011;10326;53.660;10.200;2023-01-23T04:27:41;3.92;;;3.47;;
20336;SDS011;10326;53.660;10.200;2023-01-23T04:30:10;3.95;;;3.55;;
20336;SDS011;10326;53.660;10.200;2023-01-23T04:32:38;3.85;;;3.55;;
20336;SDS011;10326;53.660;10.200;2023-01-23T04:35:06;3.97;;;3.60;;
20336;SDS011;10326;53.660;10.200;2023-01-23T04:37:38;3.67;;;3.33;;
20336;SDS011;10326;53.660;10.200;2023-01-23T04:40:06;3.75;;;3.45;;
20336;SDS011;10326;53.660;10.200;2023-01-23T04:42:47;4.10;;;3.70;;
20336;SDS011;10326;53.660;10.200;2023-01-23T04:45:29;4.15;;;3.78;;
20336;SDS011;10326;53.660;10.200;2023-01-23T04:48:16;4.45;;;4.05;;
20336;SDS011;10326;53.660;10.200;2023-01-23T04:50:44;5.90;;;4.20;;
20336;SDS011;10326;53.660;10.200;2023-01-23T04:53:14;4.57;;;4.13;;
20336;SDS011;10326;53.660;10.200;2023-01-23T04:55:42;5.07;;;4.60;;
20336;SDS011;10326;53.660;10.200;2023-01-23T04:58:13;4.83;;;4.43;;
20336;SDS011;10326;53.660;10.200;2023-01-23T05:00:41;4.73;;;4.13;;
20336;SDS011;10326;53.660;10.200;2023-01-23T05:03:09;4.90;;;4.47;;
20336;SDS011;10326;53.660;10.200;2023-01-23T05:05:41;4.90;;;4.40;;
20336;SDS011;10326;53.660;10.200;2023-01-23T05:08:08;6.18;;;5.38;;
20336;SDS011;10326;53.660;10.200;2023-01-23T05:10:38;5.80;;;4.60;;
20336;SDS011;10326;53.660;10.200;2023-01-23T05:13:08;4.97;;;4.57;;
20336;SDS011;10326;53.660;10.200;2023-01-23T05:15:35;5.20;;;4.70;;
20336;SDS011;10326;53.660;10.200;2023-01-23T05:18:03;5.57;;;5.07;;
20336;SDS011;10326;53.660;10.200;2023-01-23T05:20:35;6.20;;;5.00;;
20336;SDS011;10326;53.660;10.200;2023-01-23T05:23:03;5.95;;;5.45;;
20336;SDS011;10326;53.660;10.200;2023-01-23T05:25:43;6.20;;;5.40;;
20336;SDS011;10326;53.660;10.200;2023-01-23T05:28:10;5.45;;;4.95;;
20336;SDS011;10326;53.660;10.200;2023-01-23T05:30:44;5.32;;;4.82;;
20336;SDS011;10326;53.660;10.200;2023-01-23T05:33:18;5.60;;;5.10;;
20336;SDS011;10326;53.660;10.200;2023-01-23T05:35:46;6.07;;;5.47;;
20336;SDS011;10326;53.660;10.200;2023-01-23T05:38:13;6.50;;;5.90;;
20336;SDS011;10326;53.660;10.200;2023-01-23T05:40:43;6.15;;;5.55;;
20336;SDS011;10326;53.660;10.200;2023-01-23T05:43:13;6.00;;;5.40;;
20336;SDS011;10326;53.660;10.200;2023-01-23T05:45:59;6.13;;;5.35;;
20336;SDS011;10326;53.660;10.200;2023-01-23T05:48:46;6.27;;;5.67;;
20336;SDS011;10326;53.660;10.200;2023-01-23T05:51:15;6.15;;;5.55;;
20336;SDS011;10326;53.660;10.200;2023-01-23T05:53:43;6.50;;;5.80;;
20336;SDS011;10326;53.660;10.200;2023-01-23T05:56:12;7.15;;;5.88;;
20336;SDS011;10326;53.660;10.200;2023-01-23T05:59:00;7.03;;;5.97;;
20336;SDS011;10326;53.660;10.200;2023-01-23T06:01:40;7.38;;;6.30;;
20336;SDS011;10326;53.660;10.200;2023-01-23T06:04:27;6.47;;;5.82;;
20336;SDS011;10326;53.660;10.200;2023-01-23T06:07:13;6.20;;;5.63;;
20336;SDS011;10326;53.660;10.200;2023-01-23T06:09:41;6.03;;;5.45;;
20336;SDS011;10326;53.660;10.200;2023-01-23T06:12:10;6.68;;;5.97;;
20336;SDS011;10326;53.660;10.200;2023-01-23T06:14:38;7.13;;;5.93;;
20336;SDS011;10326;53.660;10.200;2023-01-23T06:17:05;6.53;;;5.88;;
20336;SDS011;10326;53.660;10.200;2023-01-23T06:19:33;6.47;;;5.72;;
20336;SDS011;10326;53.660;10.200;2023-01-23T06:22:01;6.70;;;5.97;;
20336;SDS011;10326;53.660;10.200;2023-01-23T06:24:37;5.90;;;5.35;;
20336;SDS011;10326;53.660;10.200;2023-01-23T06:27:04;6.78;;;6.18;;
20336;SDS011;10326;53.660;10.200;2023-01-23T06:29:35;6.50;;;5.90;;
20336;SDS011;10326;53.660;10.200;2023-01-23T06:32:03;6.65;;;6.00;;
20336;SDS011;10326;53.660;10.200;2023-01-23T06:34:31;6.85;;;6.15;;
20336;SDS011;10326;53.660;10.200;2023-01-23T06:37:01;6.68;;;6.07;;
20336;SDS011;10326;53.660;10.200;2023-01-23T06:39:29;6.85;;;6.18;;
20336;SDS011;10326;53.660;10.200;2023-01-23T06:41:56;6.45;;;5.95;;
20336;SDS011;10326;53.660;10.200;2023-01-23T06:44:23;7.25;;;6.50;;
20336;SDS011;10326;53.660;10.200;2023-01-23T06:46:53;7.20;;;6.50;;
20336;SDS011;10326;53.660;10.200;2023-01-23T06:49:22;7.13;;;6.43;;
20336;SDS011;10326;53.660;10.200;2023-01-23T06:51:50;7.28;;;6.50;;
20336;SDS011;10326;53.660;10.200;2023-01-23T06:54:19;6.72;;;6.13;;
20336;SDS011;10326;53.660;10.200;2023-01-23T06:56:47;6.70;;;6.10;;
20336;SDS011;10326;53.660;10.200;2023-01-23T06:59:14;7.13;;;6.43;;
20336;SDS011;10326;53.660;10.200;2023-01-23T07:01:41;7.60;;;6.75;;
20336;SDS011;10326;53.660;10.200;2023-01-23T07:04:23;7.50;;;6.80;;
20336;SDS011;10326;53.660;10.200;2023-01-23T07:06:50;7.63;;;6.75;;
20336;SDS011;10326;53.660;10.200;2023-01-23T07:09:18;7.55;;;6.65;;
20336;SDS011;10326;53.660;10.200;2023-01-23T07:11:58;7.20;;;6.50;;
20336;SDS011;10326;53.660;10.200;2023-01-23T07:14:27;7.47;;;6.78;;
20336;SDS011;10326;53.660;10.200;2023-01-23T07:16:55;7.60;;;6.90;;
20336;SDS011;10326;53.660;10.200;2023-01-23T07:19:25;6.70;;;6.10;;
20336;SDS011;10326;53.660;10.200;2023-01-23T07:21:54;6.97;;;6.38;;
20336;SDS011;10326;53.660;10.200;2023-01-23T07:24:21;7.17;;;6.50;;
20336;SDS011;10326;53.660;10.200;2023-01-23T07:26:48;7.68;;;6.90;;
20336;SDS011;10326;53.660;10.200;2023-01-23T07:29:15;7.57;;;6.80;;
20336;SDS011;10326;53.660;10.200;2023-01-23T07:31:43;7.90;;;6.80;;
20336;SDS011;10326;53.660;10.200;2023-01-23T07:34:10;7.43;;;6.53;;
20336;SDS011;10326;53.660;10.200;2023-01-23T07:36:38;8.00;;;6.80;;
20336;SDS011;10326;53.660;10.200;2023-01-23T07:39:05;9.77;;;6.93;;
20336;SDS011;10326;53.660;10.200;2023-01-23T07:41:33;8.13;;;6.60;;
20336;SDS011;10326;53.660;10.200;2023-01-23T07:44:05;6.82;;;6.13;;
20336;SDS011;10326;53.660;10.200;2023-01-23T07:46:40;7.00;;;6.30;;
20336;SDS011;10326;53.660;10.200;2023-01-23T07:49:08;7.00;;;6.40;;
20336;SDS011;10326;53.660;10.200;2023-01-23T07:51:36;6.80;;;6.10;;
20336;SDS011;10326;53.660;10.200;2023-01-23T07:54:05;7.18;;;6.47;;
20336;SDS011;10326;53.660;10.200;2023-01-23T07:56:33;7.50;;;6.80;;
20336;SDS011;10326;53.660;10.200;2023-01-23T07:59:00;6.65;;;6.05;;
20336;SDS011;10326;53.660;10.200;2023-01-23T08:01:27;6.55;;;5.95;;
20336;SDS011;10326;53.660;10.200;2023-01-23T08:03:54;7.13;;;6.43;;
20336;SDS011;10326;53.660;10.200;2023-01-23T08:06:21;8.00;;;6.47;;
20336;SDS011;10326;53.660;10.200;2023-01-23T08:08:50;7.33;;;6.60;;
20336;SDS011;10326;53.660;10.200;2023-01-23T08:11:17;6.60;;;6.00;;
20336;SDS011;10326;53.660;10.200;2023-01-23T08:13:47;6.80;;;6.18;;
20336;SDS011;10326;53.660;10.200;2023-01-23T08:16:14;6.78;;;6.07;;
20336;SDS011;10326;53.660;10.200;2023-01-23T08:18:42;6.85;;;6.15;;
20336;SDS011;10326;53.660;10.200;2023-01-23T08:21:09;7.15;;;6.20;;
20336;SDS011;10326;53.660;10.200;2023-01-23T08:23:37;6.43;;;5.83;;
20336;SDS011;10326;53.660;10.200;2023-01-23T08:26:06;7.43;;;6.73;;
20336;SDS011;10326;53.660;10.200;2023-01-23T08:28:36;7.70;;;6.70;;
20336;SDS011;10326;53.660;10.200;2023-01-23T08:31:05;6.95;;;6.28;;
20336;SDS011;10326;53.660;10.200;2023-01-23T08:33:33;6.60;;;5.97;;
20336;SDS011;10326;53.660;10.200;2023-01-23T08:36:02;7.22;;;6.55;;
20336;SDS011;10326;53.660;10.200;2023-01-23T08:38:31;7.25;;;6.05;;
20336;SDS011;10326;53.660;10.200;2023-01-23T08:40:59;7.20;;;6.50;;
20336;SDS011;10326;53.660;10.200;2023-01-23T08:43:29;7.07;;;6.37;;
20336;SDS011;10326;53.660;10.200;2023-01-23T08:45:57;8.65;;;6.80;;
20336;SDS011;10326;53.660;10.200;2023-01-23T08:48:25;7.78;;;7.07;;
20336;SDS011;10326;53.660;10.200;2023-01-23T08:50:57;8.07;;;7.07;;
20336;SDS011;10326;53.660;10.200;2023-01-23T08:53:26;8.50;;;7.45;;
20336;SDS011;10326;53.660;10.200;2023-01-23T08:55:57;7.63;;;6.78;;
20336;SDS011;10326;53.660;10.200;2023-01-23T08:58:25;6.47;;;5.97;;
20336;SDS011;10326;53.660;10.200;2023-01-23T09:00:54;6.93;;;6.22;;
20336;SDS011;10326;53.660;10.200;2023-01-23T09:03:21;7.38;;;6.68;;
20336;SDS011;10326;53.660;10.200;2023-01-23T09:05:49;6.75;;;6.15;;
20336;SDS011;10326;53.660;10.200;2023-01-23T09:08:16;7.68;;;6.57;;
20336;SDS011;10326;53.660;10.200;2023-01-23T09:10:44;6.57;;;5.97;;
20336;SDS011;10326;53.660;10.200;2023-01-23T09:13:11;6.38;;;5.78;;
20336;SDS011;10326;53.660;10.200;2023-01-23T09:15:39;7.30;;;6.55;;
20336;SDS011;10326;53.660;10.200;2023-01-23T09:18:08;7.55;;;6.40;;
20336;SDS011;10326;53.660;10.200;2023-01-23T09:20:36;7.30;;;6.53;;
20336;SDS011;10326;53.660;10.200;2023-01-23T09:23:03;8.10;;;7.30;;
20336;SDS011;10326;53.660;10.200;2023-01-23T09:25:30;7.95;;;6.97;;
20336;SDS011;10326;53.660;10.200;2023-01-23T09:27:58;7.78;;;6.97;;
20336;SDS011;10326;53.660;10.200;2023-01-23T09:30:25;8.63;;;6.97;;
20336;SDS011;10326;53.660;10.200;2023-01-23T09:32:52;8.18;;;7.47;;
20336;SDS011;10326;53.660;10.200;2023-01-23T09:35:21;7.70;;;6.85;;
20336;SDS011;10326;53.660;10.200;2023-01-23T09:37:48;8.50;;;7.07;;
20336;SDS011;10326;53.660;10.200;2023-01-23T09:40:25;9.35;;;7.50;;
20336;SDS011;10326;53.660;10.200;2023-01-23T09:42:56;8.77;;;7.80;;
20336;SDS011;10326;53.660;10.200;2023-01-23T09:45:26;8.23;;;7.17;;
20336;SDS011;10326;53.660;10.200;2023-01-23T09:47:56;9.07;;;7.38;;
20336;SDS011;10326;53.660;10.200;2023-01-23T09:50:36;8.52;;;7.72;;
20336;SDS011;10326;53.660;10.200;2023-01-23T09:53:13;7.47;;;6.72;;
20336;SDS011;10326;53.660;10.200;2023-01-23T09:55:47;8.38;;;7.13;;
20336;SDS011;10326;53.660;10.200;2023-01-23T09:58:21;7.50;;;6.80;;
20336;SDS011;10326;53.660;10.200;2023-01-23T10:00:53;8.90;;;7.68;;
20336;SDS011;10326;53.660;10.200;2023-01-23T10:03:20;8.98;;;7.55;;
20336;SDS011;10326;53.660;10.200;2023-01-23T10:06:03;8.35;;;7.45;;
20336;SDS011;10326;53.660;10.200;2023-01-23T10:08:47;8.73;;;7.43;;
20336;SDS011;10326;53.660;10.200;2023-01-23T10:11:32;8.43;;;7.53;;
20336;SDS011;10326;53.660;10.200;2023-01-23T10:14:16;8.27;;;7.47;;
20336;SDS011;10326;53.660;10.200;2023-01-23T10:17:04;8.83;;;7.67;;
20336;SDS011;10326;53.660;10.200;2023-01-23T10:19:45;9.37;;;8.37;;
20336;SDS011;10326;53.660;10.200;2023-01-23T10:22:42;8.85;;;7.80;;
20336;SDS011;10326;53.660;10.200;2023-01-23T10:25:17;9.00;;;8.07;;
20336;SDS011;10326;53.660;10.200;2023-01-23T10:27:48;9.30;;;8.40;;
20336;SDS011;10326;53.660;10.200;2023-01-23T10:30:18;10.18;;;8.43;;
20336;SDS011;10326;53.660;10.200;2023-01-23T10:32:55;11.00;;;8.32;;
20336;SDS011;10326;53.660;10.200;2023-01-23T10:35:26;9.68;;;8.60;;
20336;SDS011;10326;53.660;10.200;2023-01-23T10:38:04;9.52;;;8.10;;
20336;SDS011;10326;53.660;10.200;2023-01-23T10:40:50;9.15;;;8.23;;
20336;SDS011;10326;53.660;10.200;2023-01-23T10:43:36;9.45;;;8.05;;
20336;SDS011;10326;53.660;10.200;2023-01-23T10:46:07;10.55;;;8.73;;
20336;SDS011;10326;53.660;10.200;2023-01-23T10:48:39;10.93;;;9.15;;
20336;SDS011;10326;53.660;10.200;2023-01-23T10:54:15;10.48;;;8.80;;
20336;SDS011;10326;53.660;10.200;2023-01-23T10:56:45;11.18;;;8.93;;
20336;SDS011;10326;53.660;10.200;2023-01-23T10:59:19;9.38;;;8.38;;
20336;SDS011;10326;53.660;10.200;2023-01-23T11:01:55;11.55;;;9.30;;
20336;SDS011;10326;53.660;10.200;2023-01-23T11:04:26;11.05;;;9.45;;
20336;SDS011;10326;53.660;10.200;2023-01-23T11:06:59;10.80;;;9.60;;
20336;SDS011;10326;53.660;10.200;2023-01-23T11:09:31;10.65;;;9.38;;
20336;SDS011;10326;53.660;10.200;2023-01-23T11:12:13;10.20;;;9.13;;
20336;SDS011;10326;53.660;10.200;2023-01-23T11:14:43;9.48;;;8.52;;
20336;SDS011;10326;53.660;10.200;2023-01-23T11:17:13;10.55;;;8.60;;
20336;SDS011;10326;53.660;10.200;2023-01-23T11:19:49;10.32;;;9.18;;
20336;SDS011;10326;53.660;10.200;2023-01-23T11:22:31;10.82;;;9.10;;
20336;SDS011;10326;53.660;10.200;2023-01-23T11:25:16;10.25;;;8.85;;
20336;SDS011;10326;53.660;10.200;2023-01-23T11:27:55;10.82;;;9.02;;
20336;SDS011;10326;53.660;10.200;2023-01-23T11:30:26;10.55;;;8.60;;
20336;SDS011;10326;53.660;10.200;2023-01-23T11:33:03;10.68;;;8.70;;
20336;SDS011;10326;53.660;10.200;2023-01-23T11:35:44;9.95;;;8.85;;
20336;SDS011;10326;53.660;10.200;2023-01-23T11:38:24;11.32;;;9.18;;
20336;SDS011;10326;53.660;10.200;2023-01-23T11:40:55;9.52;;;8.60;;
20336;SDS011;10326;53.660;10.200;2023-01-23T11:43:22;10.40;;;8.60;;
20336;SDS011;10326;53.660;10.200;2023-01-23T11:45:54;9.57;;;8.68;;
20336;SDS011;10326;53.660;10.200;2023-01-23T11:48:43;11.15;;;9.55;;
20336;SDS011;10326;53.660;10.200;2023-01-23T11:51:23;10.98;;;9.00;;
20336;SDS011;10326;53.660;10.200;2023-01-23T11:54:01;9.45;;;8.48;;
20336;SDS011;10326;53.660;10.200;2023-01-23T11:56:53;12.43;;;9.50;;
20336;SDS011;10326;53.660;10.200;2023-01-23T11:59:37;10.23;;;9.05;;
20336;SDS011;10326;53.660;10.200;2023-01-23T12:02:20;11.07;;;8.52;;
20336;SDS011;10326;53.660;10.200;2023-01-23T12:05:04;9.95;;;8.43;;
20336;SDS011;10326;53.660;10.200;2023-01-23T12:07:45;9.85;;;8.85;;
20336;SDS011;10326;53.660;10.200;2023-01-23T12:10:25;10.18;;;8.25;;
20336;SDS011;10326;53.660;10.200;2023-01-23T12:13:02;11.93;;;9.68;;
20336;SDS011;10326;53.660;10.200;2023-01-23T12:15:42;10.38;;;9.10;;
20336;SDS011;10326;53.660;10.200;2023-01-23T12:18:16;11.68;;;9.43;;
20336;SDS011;10326;53.660;10.200;2023-01-23T12:20:59;11.80;;;10.00;;
20336;SDS011;10326;53.660;10.200;2023-01-23T12:23:35;11.02;;;9.70;;
20336;SDS011;10326;53.660;10.200;2023-01-23T12:26:15;10.98;;;9.15;;
20336;SDS011;10326;53.660;10.200;2023-01-23T12:32:12;9.95;;;8.60;;
20336;SDS011;10326;53.660;10.200;2023-01-23T12:34:59;11.20;;;9.40;;
20336;SDS011;10326;53.660;10.200;2023-01-23T12:37:47;10.13;;;8.52;;
20336;SDS011;10326;53.660;10.200;2023-01-23T12:40:30;12.90;;;9.02;;
20336;SDS011;10326;53.660;10.200;2023-01-23T12:43:06;9.45;;;8.18;;
20336;SDS011;10326;53.660;10.200;2023-01-23T12:45:40;10.38;;;8.50;;
20336;SDS011;10326;53.660;10.200;2023-01-23T12:48:14;10.95;;;8.90;;
20336;SDS011;10326;53.660;10.200;2023-01-23T12:50:53;11.10;;;8.55;;
20336;SDS011;10326;53.660;10.200;2023-01-23T12:53:23;11.02;;;8.63;;
20336;SDS011;10326;53.660;10.200;2023-01-23T12:55:55;10.63;;;9.52;;
20336;SDS011;10326;53.660;10.200;2023-01-23T12:58:28;11.70;;;8.85;;
20336;SDS011;10326;53.660;10.200;2023-01-23T13:01:05;12.50;;;9.88;;
20336;SDS011;10326;53.660;10.200;2023-01-23T13:03:50;11.10;;;8.90;;
20336;SDS011;10326;53.660;10.200;2023-01-23T13:06:44;12.02;;;10.07;;
20336;SDS011;10326;53.660;10.200;2023-01-23T13:09:27;11.30;;;10.07;;
20336;SDS011;10326;53.660;10.200;2023-01-23T13:12:07;10.95;;;9.15;;
20336;SDS011;10326;53.660;10.200;2023-01-23T13:14:44;12.07;;;9.98;;
20336;SDS011;10326;53.660;10.200;2023-01-23T13:17:27;11.75;;;10.27;;
20336;SDS011;10326;53.660;10.200;2023-01-23T13:20:09;11.48;;;9.93;;
20336;SDS011;10326;53.660;10.200;2023-01-23T13:23:20;12.65;;;9.52;;
20336;SDS011;10326;53.660;10.200;2023-01-23T13:26:22;12.05;;;10.10;;
20336;SDS011;10326;53.660;10.200;2023-01-23T13:28:53;11.68;;;10.27;;
20336;SDS011;10326;53.660;10.200;2023-01-23T13:31:24;12.38;;;10.77;;
20336;SDS011;10326;53.660;10.200;2023-01-23T13:34:00;12.40;;;11.10;;
20336;SDS011;10326;53.660;10.200;2023-01-23T13:36:32;13.18;;;10.73;;
20336;SDS011;10326;53.660;10.200;2023-01-23T13:45:18;10.88;;;9.52;;
20336;SDS011;10326;53.660;10.200;2023-01-23T13:48:04;12.10;;;10.68;;
20336;SDS011;10326;53.660;10.200;2023-01-23T13:51:29;11.50;;;10.25;;
20336;SDS011;10326;53.660;10.200;2023-01-23T13:53:56;12.70;;;11.40;;
20336;SDS011;10326;53.660;10.200;2023-01-23T13:56:41;14.13;;;10.90;;
20336;SDS011;10326;53.660;10.200;2023-01-23T13:59:14;11.35;;;10.15;;
20336;SDS011;10326;53.660;10.200;2023-01-23T14:01:55;12.63;;;10.55;;
20336;SDS011;10326;53.660;10.200;2023-01-23T14:04:54;13.05;;;10.05;;
20336;SDS011;10326;53.660;10.200;2023-01-23T14:07:41;12.23;;;10.60;;
20336;SDS011;10326;53.660;10.200;2023-01-23T14:10:19;12.23;;;10.32;;
20336;SDS011;10326;53.660;10.200;2023-01-23T14:12:59;12.70;;;10.90;;
20336;SDS011;10326;53.660;10.200;2023-01-23T14:15:31;13.10;;;10.85;;
20336;SDS011;10326;53.660;10.200;2023-01-23T14:18:26;11.82;;;10.38;;
20336;SDS011;10326;53.660;10.200;2023-01-23T14:21:00;12.63;;;10.40;;
20336;SDS011;10326;53.660;10.200;2023-01-23T14:23:31;12.80;;;11.00;;
20336;SDS011;10326;53.660;10.200;2023-01-23T14:26:02;12.45;;;10.75;;
20336;SDS011;10326;53.660;10.200;2023-01-23T14:28:30;12.38;;;10.65;;
20336;SDS011;10326;53.660;10.200;2023-01-23T14:30:59;12.38;;;10.55;;
20336;SDS011;10326;53.660;10.200;2023-01-23T14:33:36;12.50;;;10.65;;
20336;SDS011;10326;53.660;10.200;2023-01-23T14:36:11;12.45;;;10.43;;
20336;SDS011;10326;53.660;10.200;2023-01-23T14:38:42;14.45;;;10.93;;
20336;SDS011;10326;53.660;10.200;2023-01-23T14:41:11;12.20;;;10.43;;
20336;SDS011;10326;53.660;10.200;2023-01-23T14:43:39;13.98;;;11.00;;
20336;SDS011;10326;53.660;10.200;2023-01-23T14:46:11;13.05;;;10.98;;
20336;SDS011;10326;53.660;10.200;2023-01-23T14:48:42;11.85;;;10.63;;
20336;SDS011;10326;53.660;10.200;2023-01-23T14:51:16;13.05;;;10.93;;
20336;SDS011;10326;53.660;10.200;2023-01-23T14:53:51;12.18;;;10.85;;
20336;SDS011;10326;53.660;10.200;2023-01-23T14:56:21;12.93;;;11.10;;
20336;SDS011;10326;53.660;10.200;2023-01-23T14:58:53;14.98;;;11.43;;
20336;SDS011;10326;53.660;10.200;2023-01-23T15:01:24;12.80;;;10.98;;
20336;SDS011;10326;53.660;10.200;2023-01-23T15:03:56;13.77;;;11.27;;
20336;SDS011;10326;53.660;10.200;2023-01-23T15:06:26;12.88;;;11.32;;
20336;SDS011;10326;53.660;10.200;2023-01-23T15:09:02;13.73;;;11.05;;
20336;SDS011;10326;53.660;10.200;2023-01-23T15:11:33;13.63;;;11.25;;